createdAt,value
2019-03-01T00:01:25.579Z,73.42
2019-03-01T00:04:00.731Z,75.03
2019-03-01T00:06:44.705Z,69.42
2019-03-01T00:09:28.807Z,70.15
2019-03-01T00:12:13.021Z,66.82
2019-03-01T00:14:50.781Z,65.62
2019-03-01T00:17:39.649Z,66.90
2019-03-01T00:20:35.904Z,60.43
2019-03-01T00:23:29.004Z,63.95
2019-03-01T00:26:19.002Z,57.13
2019-03-01T00:29:00.296Z,64.97
2019-03-01T00:31:48.889Z,67.20
2019-03-01T00:34:46.852Z,58.90
2019-03-01T00:37:31.112Z,62.00
2019-03-01T00:40:03.328Z,63.00
2019-03-01T00:42:47.494Z,59.55
2019-03-01T00:45:16.558Z,59.98
2019-03-01T00:47:45.627Z,62.27
2019-03-01T00:50:14.708Z,64.42
2019-03-01T00:52:43.828Z,57.10
2019-03-01T00:55:13.028Z,62.35
2019-03-01T00:57:42.096Z,58.48
2019-03-01T01:00:32.074Z,66.12
2019-03-01T01:03:01.206Z,63.15
2019-03-01T01:05:30.282Z,58.75
2019-03-01T01:07:59.428Z,64.10
2019-03-01T01:10:28.510Z,67.32
2019-03-01T01:12:57.579Z,63.87
2019-03-01T01:15:26.642Z,72.78
2019-03-01T01:17:55.708Z,70.65
2019-03-01T01:20:24.777Z,62.80
2019-03-01T01:22:53.837Z,64.92
2019-03-01T01:25:22.905Z,65.20
2019-03-01T01:27:52.035Z,59.90
2019-03-01T01:30:21.123Z,64.62
2019-03-01T01:32:50.184Z,64.00
2019-03-01T01:35:19.431Z,64.05
2019-03-01T01:37:48.580Z,63.10
2019-03-01T01:40:17.652Z,61.23
2019-03-01T01:42:46.707Z,63.33
2019-03-01T01:45:16.044Z,63.20
2019-03-01T01:47:45.175Z,60.05
2019-03-01T01:50:14.305Z,60.63
2019-03-01T01:52:43.362Z,56.70
2019-03-01T01:55:12.543Z,55.83
2019-03-01T01:57:41.631Z,55.60
2019-03-01T02:00:13.111Z,55.17
2019-03-01T02:02:42.302Z,53.13
2019-03-01T02:05:11.422Z,54.08
2019-03-01T02:07:40.473Z,48.73
2019-03-01T02:10:10.554Z,46.53
2019-03-01T02:12:39.601Z,48.90
2019-03-01T02:15:12.663Z,49.98
2019-03-01T02:17:41.900Z,49.23
2019-03-01T02:20:12.507Z,52.25
2019-03-01T02:22:41.587Z,46.37
2019-03-01T02:25:12.239Z,49.18
2019-03-01T02:27:41.324Z,46.02
2019-03-01T02:30:16.681Z,45.73
2019-03-01T02:32:46.178Z,44.70
2019-03-01T02:35:16.794Z,44.90
2019-03-01T02:37:45.852Z,45.65
2019-03-01T02:40:16.163Z,42.48
2019-03-01T02:42:45.230Z,43.87
2019-03-01T02:45:16.730Z,44.75
2019-03-01T02:47:45.908Z,42.90
2019-03-01T02:50:16.613Z,42.00
2019-03-01T02:52:45.744Z,37.73
2019-03-01T02:55:17.160Z,43.30
2019-03-01T02:57:46.281Z,36.28
2019-03-01T03:00:21.086Z,38.13
2019-03-01T03:02:50.282Z,39.70
2019-03-01T03:05:19.420Z,34.33
2019-03-01T03:07:50.108Z,32.95
2019-03-01T03:10:19.419Z,37.63
2019-03-01T03:12:50.339Z,35.65
2019-03-01T03:15:36.482Z,32.23
2019-03-01T03:18:05.681Z,27.00
2019-03-01T03:20:34.748Z,26.48
2019-03-01T03:23:04.081Z,28.47
2019-03-01T03:25:33.124Z,23.92
2019-03-01T03:28:02.259Z,22.40
2019-03-01T03:30:31.330Z,22.87
2019-03-01T03:33:00.385Z,20.88
2019-03-01T03:35:29.520Z,20.88
2019-03-01T03:37:58.583Z,24.80
2019-03-01T03:40:27.642Z,21.02
2019-03-01T03:42:56.697Z,22.35
2019-03-01T03:45:25.821Z,24.12
2019-03-01T03:47:54.908Z,18.85
2019-03-01T03:50:24.002Z,19.62
2019-03-01T03:52:53.110Z,21.68
2019-03-01T03:55:22.488Z,20.85
2019-03-01T03:57:51.602Z,20.62
2019-03-01T04:00:22.249Z,21.05
2019-03-01T04:02:51.315Z,19.07
2019-03-01T04:05:20.440Z,21.05
2019-03-01T04:07:49.912Z,18.07
2019-03-01T04:10:19.128Z,17.55
2019-03-01T04:12:48.248Z,19.10
2019-03-01T04:15:17.705Z,17.52
2019-03-01T04:17:46.970Z,15.72
2019-03-01T04:20:17.515Z,17.50
2019-03-01T04:22:46.758Z,15.48
2019-03-01T04:25:15.978Z,16.12
2019-03-01T04:27:45.103Z,18.42
2019-03-01T04:30:16.298Z,15.53
2019-03-01T04:32:45.478Z,14.47
2019-03-01T04:35:15.103Z,14.50
2019-03-01T04:37:44.332Z,16.35
2019-03-01T04:40:15.016Z,16.37
2019-03-01T04:42:44.088Z,17.55
2019-03-01T04:45:15.739Z,13.93
2019-03-01T04:47:44.888Z,21.35
2019-03-01T04:50:14.277Z,14.40
2019-03-01T04:52:43.427Z,15.50
2019-03-01T04:55:16.751Z,13.00
2019-03-01T04:57:45.812Z,17.50
2019-03-01T05:00:22.986Z,14.35
2019-03-01T05:02:52.108Z,12.70
2019-03-01T05:05:21.222Z,13.83
2019-03-01T05:07:50.548Z,15.20
2019-03-01T05:10:19.932Z,12.47
2019-03-01T05:12:48.996Z,15.08
2019-03-01T05:15:20.665Z,15.20
2019-03-01T05:17:49.741Z,13.45
2019-03-01T05:20:18.866Z,18.57
2019-03-01T05:22:47.999Z,15.70
2019-03-01T05:25:17.070Z,15.40
2019-03-01T05:27:46.143Z,13.60
2019-03-01T05:30:18.870Z,15.38
2019-03-01T05:32:48.072Z,14.33
2019-03-01T05:35:17.219Z,16.10
2019-03-01T05:37:46.302Z,15.23
2019-03-01T05:40:16.455Z,15.55
2019-03-01T05:42:45.524Z,16.37
2019-03-01T05:45:23.903Z,13.45
2019-03-01T05:47:52.997Z,15.28
2019-03-01T05:50:22.043Z,16.67
2019-03-01T05:52:51.113Z,16.23
2019-03-01T05:55:20.181Z,16.80
2019-03-01T05:58:21.114Z,17.52
2019-03-01T06:00:51.559Z,15.83
2019-03-01T06:03:48.034Z,15.00
2019-03-01T06:06:44.325Z,15.35
2019-03-01T06:09:33.970Z,15.40
2019-03-01T06:12:38.050Z,16.57
2019-03-01T06:15:37.431Z,17.67
2019-03-01T06:18:09.579Z,16.37
2019-03-01T06:20:47.357Z,17.80
2019-03-01T06:23:22.137Z,16.75
2019-03-01T06:25:54.286Z,18.00
2019-03-01T06:28:34.900Z,16.12
2019-03-01T06:31:22.150Z,18.42
2019-03-01T06:33:57.156Z,17.90
2019-03-01T06:36:44.341Z,17.25
2019-03-01T06:39:51.030Z,18.65
2019-03-01T06:42:34.749Z,17.87
2019-03-01T06:45:12.966Z,22.22
2019-03-01T06:47:44.653Z,22.07
2019-03-01T06:50:21.528Z,21.30
2019-03-01T06:52:50.670Z,23.00
2019-03-01T06:55:31.902Z,21.60
2019-03-01T06:58:00.948Z,23.15
2019-03-01T07:00:31.826Z,22.95
2019-03-01T07:03:01.352Z,18.20
2019-03-01T07:05:30.432Z,23.12
2019-03-01T07:07:59.534Z,19.62
2019-03-01T07:10:28.611Z,22.07
2019-03-01T07:12:57.661Z,21.05
2019-03-01T07:15:26.724Z,23.45
2019-03-01T07:17:55.778Z,21.93
2019-03-01T07:20:24.831Z,22.82
2019-03-01T07:22:53.936Z,21.62
2019-03-01T07:25:22.997Z,22.50
2019-03-01T07:27:52.111Z,22.42
2019-03-01T07:30:21.182Z,18.77
2019-03-01T07:32:50.234Z,19.85
2019-03-01T07:35:19.289Z,21.02
2019-03-01T07:37:48.351Z,20.72
2019-03-01T07:40:17.433Z,22.02
2019-03-01T07:42:46.831Z,21.52
2019-03-01T07:45:16.085Z,20.60
2019-03-01T07:47:45.224Z,24.07
2019-03-01T07:50:14.553Z,22.25
2019-03-01T07:52:43.629Z,23.25
2019-03-01T07:55:12.861Z,21.30
2019-03-01T07:57:41.937Z,20.95
2019-03-01T08:00:15.959Z,27.77
2019-03-01T08:02:45.894Z,25.17
2019-03-01T08:05:16.464Z,19.82
2019-03-01T08:07:55.409Z,23.05
2019-03-01T08:10:20.918Z,20.97
2019-03-01T08:12:47.877Z,22.70
2019-03-01T08:15:18.006Z,24.77
2019-03-01T08:17:47.214Z,21.60
2019-03-01T08:20:19.650Z,22.55
2019-03-01T08:22:49.683Z,26.60
2019-03-01T08:25:23.248Z,22.65
2019-03-01T08:27:50.571Z,19.52
2019-03-01T08:30:19.966Z,22.67
2019-03-01T08:32:49.027Z,19.40
2019-03-01T08:35:18.919Z,19.73
2019-03-01T08:37:49.849Z,18.80
2019-03-01T08:40:19.180Z,20.43
2019-03-01T08:42:48.312Z,20.12
2019-03-01T08:45:20.719Z,17.50
2019-03-01T08:47:49.795Z,18.00
2019-03-01T08:50:18.941Z,18.52
2019-03-01T08:52:48.009Z,19.23
2019-03-01T08:55:22.360Z,19.30
2019-03-01T08:57:51.541Z,18.02
2019-03-01T09:00:29.367Z,18.02
2019-03-01T09:03:01.607Z,18.50
2019-03-01T09:05:30.648Z,19.00
2019-03-01T09:07:59.753Z,18.77
2019-03-01T09:10:32.392Z,18.02
2019-03-01T09:12:59.610Z,16.00
2019-03-01T09:15:33.161Z,18.70
2019-03-01T09:18:02.288Z,18.50
2019-03-01T09:20:32.463Z,18.17
2019-03-01T09:23:04.920Z,17.35
2019-03-01T09:25:32.961Z,16.27
2019-03-01T09:28:02.079Z,18.73
2019-03-01T09:30:31.203Z,16.17
2019-03-01T09:33:00.570Z,16.15
2019-03-01T09:35:47.519Z,17.32
2019-03-01T09:38:16.612Z,16.15
2019-03-01T09:40:45.769Z,14.50
2019-03-01T09:43:14.861Z,16.05
2019-03-01T09:45:45.637Z,15.32
2019-03-01T09:48:14.885Z,14.65
2019-03-01T09:50:44.128Z,13.85
2019-03-01T09:53:13.203Z,16.97
2019-03-01T09:55:42.293Z,16.00
2019-03-01T09:58:11.437Z,17.55
2019-03-01T10:00:59.068Z,16.77
2019-03-01T10:03:28.146Z,15.28
2019-03-01T10:05:57.210Z,17.60
2019-03-01T10:08:26.367Z,18.73
2019-03-01T10:10:55.442Z,17.55
2019-03-01T10:13:24.511Z,15.18
2019-03-01T10:15:53.559Z,19.35
2019-03-01T10:18:22.639Z,17.90
2019-03-01T10:20:51.684Z,18.50
2019-03-01T10:23:20.767Z,17.12
2019-03-01T10:25:49.832Z,18.48
2019-03-01T10:28:18.960Z,19.73
2019-03-01T10:30:48.006Z,19.60
2019-03-01T10:33:17.068Z,18.23
2019-03-01T10:35:46.122Z,20.60
2019-03-01T10:38:15.195Z,17.45
2019-03-01T10:40:44.255Z,17.70
2019-03-01T10:43:13.390Z,17.55
2019-03-01T10:45:42.808Z,18.87
2019-03-01T10:48:11.884Z,18.70
2019-03-01T10:50:40.944Z,16.87
2019-03-01T10:53:10.010Z,18.77
2019-03-01T10:55:39.099Z,18.60
2019-03-01T10:58:08.187Z,18.00
2019-03-01T11:00:37.560Z,19.67
2019-03-01T11:03:06.640Z,16.32
2019-03-01T11:05:35.697Z,15.70
2019-03-01T11:08:04.849Z,15.78
2019-03-01T11:10:38.789Z,16.67
2019-03-01T11:13:18.154Z,15.78
2019-03-01T11:15:47.270Z,14.75
2019-03-01T11:18:16.342Z,14.30
2019-03-01T11:20:45.384Z,15.20
2019-03-01T11:23:14.452Z,16.42
2019-03-01T11:25:43.527Z,16.12
2019-03-01T11:28:12.587Z,13.53
2019-03-01T11:30:41.631Z,14.05
2019-03-01T11:33:10.700Z,14.53
2019-03-01T11:35:40.347Z,15.30
2019-03-01T11:38:09.421Z,13.55
2019-03-01T11:40:41.300Z,14.90
2019-03-01T11:43:10.420Z,14.45
2019-03-01T11:45:39.545Z,11.73
2019-03-01T11:48:08.781Z,11.38
2019-03-01T11:50:37.908Z,12.28
2019-03-01T11:53:07.057Z,11.73
2019-03-01T11:55:36.119Z,13.18
2019-03-01T11:58:05.182Z,12.90
2019-03-01T12:00:34.385Z,12.33
2019-03-01T12:03:03.615Z,11.97
2019-03-01T12:05:32.736Z,13.40
2019-03-01T12:08:01.795Z,15.32
2019-03-01T12:10:31.594Z,13.08
2019-03-01T12:13:00.793Z,14.07
2019-03-01T12:15:29.935Z,14.87
2019-03-01T12:17:59.018Z,14.25
2019-03-01T12:20:32.290Z,14.50
2019-03-01T12:23:01.412Z,15.28
2019-03-01T12:25:31.042Z,14.78
2019-03-01T12:28:00.112Z,13.38
2019-03-01T12:30:29.234Z,14.95
2019-03-01T12:32:58.287Z,12.45
2019-03-01T12:35:27.354Z,13.60
2019-03-01T12:37:56.385Z,14.03
2019-03-01T12:40:27.007Z,13.32
2019-03-01T12:42:56.063Z,13.05
2019-03-01T12:45:25.134Z,14.20
2019-03-01T12:47:54.209Z,15.10
2019-03-01T12:50:23.497Z,14.68
2019-03-01T12:52:52.659Z,12.82
2019-03-01T12:55:29.665Z,12.50
2019-03-01T12:57:58.711Z,12.55
2019-03-01T13:00:32.465Z,13.35
2019-03-01T13:03:05.072Z,11.18
2019-03-01T13:05:32.380Z,14.83
2019-03-01T13:08:01.448Z,16.07
2019-03-01T13:10:36.779Z,15.78
2019-03-01T13:13:08.408Z,17.85
2019-03-01T13:15:37.359Z,17.07
2019-03-01T13:18:10.221Z,15.60
2019-03-01T13:20:38.183Z,14.90
2019-03-01T13:23:07.360Z,18.02
2019-03-01T13:25:36.426Z,15.72
2019-03-01T13:28:05.496Z,19.70
2019-03-01T13:30:35.807Z,17.07
2019-03-01T13:33:05.355Z,20.17
2019-03-01T13:35:34.439Z,24.72
2019-03-01T13:38:03.983Z,29.95
2019-03-01T13:40:33.245Z,32.53
2019-03-01T13:43:02.388Z,35.40
2019-03-01T13:45:31.459Z,36.73
2019-03-01T13:48:00.499Z,38.05
2019-03-01T13:50:29.557Z,37.70
2019-03-01T13:52:58.641Z,40.65
2019-03-01T13:55:27.779Z,42.95
2019-03-01T13:57:56.847Z,44.60
2019-03-01T14:00:25.987Z,45.23
2019-03-01T14:02:55.039Z,50.33
2019-03-01T14:05:24.127Z,47.17
2019-03-01T14:07:56.643Z,44.38
2019-03-01T14:10:28.587Z,47.88
2019-03-01T14:12:57.661Z,48.55
2019-03-01T14:15:26.711Z,50.67
2019-03-01T14:18:00.818Z,51.13
2019-03-01T14:20:26.547Z,49.30
2019-03-01T14:22:55.625Z,50.38
2019-03-01T14:25:24.722Z,50.28
2019-03-01T14:27:53.905Z,49.38
2019-03-01T14:30:29.460Z,49.05
2019-03-01T14:32:57.763Z,47.55
2019-03-01T14:35:27.130Z,51.45
2019-03-01T14:37:56.468Z,56.92
2019-03-01T14:40:25.550Z,48.90
2019-03-01T14:42:54.616Z,52.15
2019-03-01T14:45:34.312Z,54.55
2019-03-01T14:48:05.167Z,52.33
2019-03-01T14:50:34.763Z,53.23
2019-03-01T14:53:03.931Z,53.95
2019-03-01T14:55:35.978Z,56.92
2019-03-01T14:58:08.162Z,54.88
2019-03-01T15:00:49.590Z,59.10
2019-03-01T15:03:34.863Z,59.27
2019-03-01T15:06:04.694Z,59.60
2019-03-01T15:08:33.861Z,58.00
2019-03-01T15:11:11.352Z,63.08
2019-03-01T15:13:40.488Z,64.07
2019-03-01T15:16:09.613Z,62.95
2019-03-01T15:18:40.420Z,68.20
2019-03-01T15:21:10.614Z,67.85
2019-03-01T15:23:39.678Z,59.83
2019-03-01T15:26:08.759Z,63.60
2019-03-01T15:28:53.653Z,67.05
2019-03-01T15:31:20.215Z,67.62
2019-03-01T15:33:49.268Z,74.20
2019-03-01T15:36:19.131Z,70.42
2019-03-01T15:38:48.440Z,66.33
2019-03-01T15:41:17.661Z,74.45
2019-03-01T15:43:46.849Z,69.17
2019-03-01T15:46:17.869Z,73.20
2019-03-01T15:48:46.693Z,76.02
2019-03-01T15:51:15.751Z,70.87
2019-03-01T15:53:44.822Z,84.87
2019-03-01T15:56:14.245Z,86.90
2019-03-01T15:58:43.280Z,91.35
2019-03-01T16:01:12.355Z,85.70
2019-03-01T16:03:41.600Z,85.70
2019-03-01T16:06:13.928Z,87.17
2019-03-01T16:08:43.951Z,84.80
2019-03-01T16:11:12.694Z,82.40
2019-03-01T16:13:47.776Z,88.35
2019-03-01T16:16:14.463Z,78.07
2019-03-01T16:18:43.749Z,79.77
2019-03-01T16:21:12.869Z,82.75
2019-03-01T16:23:41.944Z,82.55
2019-03-01T16:26:11.280Z,84.47
2019-03-01T16:28:40.331Z,83.10
2019-03-01T16:31:09.420Z,81.75
2019-03-01T16:33:38.535Z,81.75
2019-03-01T16:36:09.254Z,79.82
2019-03-01T16:38:41.191Z,82.65
2019-03-01T16:41:09.081Z,77.53
2019-03-01T16:43:38.117Z,75.15
2019-03-01T16:46:07.201Z,73.05
2019-03-01T16:48:36.239Z,78.40
2019-03-01T16:51:05.287Z,80.10
2019-03-01T16:53:36.742Z,71.53
2019-03-01T16:56:04.606Z,77.97
2019-03-01T16:58:33.657Z,81.42
2019-03-01T17:01:02.794Z,82.30
2019-03-01T17:03:31.258Z,78.13
2019-03-01T17:06:00.301Z,82.15
2019-03-01T17:08:29.366Z,81.90
2019-03-01T17:10:57.854Z,79.20
2019-03-01T17:13:26.925Z,58.30
2019-03-01T17:15:57.164Z,55.20
2019-03-01T17:18:26.352Z,54.38
2019-03-01T17:20:54.824Z,49.05
2019-03-01T17:23:23.300Z,40.87
2019-03-01T17:25:51.801Z,55.73
2019-03-01T17:28:23.549Z,48.00
2019-03-01T17:30:51.653Z,43.40
2019-03-01T17:33:20.354Z,45.77
2019-03-01T17:35:48.827Z,49.17
2019-03-01T17:38:17.307Z,42.23
2019-03-01T17:40:45.765Z,47.27
2019-03-01T17:43:14.285Z,43.20
2019-03-01T17:45:42.840Z,41.23
2019-03-01T17:48:11.300Z,42.93
2019-03-01T17:50:41.675Z,41.10
2019-03-01T17:53:10.494Z,36.23
2019-03-01T17:55:39.056Z,47.80
2019-03-01T17:58:08.988Z,39.47
2019-03-01T18:00:41.696Z,45.87
2019-03-01T18:03:10.164Z,42.70
2019-03-01T18:05:41.441Z,42.17
2019-03-01T18:08:10.134Z,39.17
2019-03-01T18:10:38.641Z,40.33
2019-03-01T18:13:07.186Z,35.67
2019-03-01T18:15:35.721Z,41.53
2019-03-01T18:18:04.305Z,40.40
2019-03-01T18:20:34.029Z,38.57
2019-03-01T18:23:03.318Z,36.07
2019-03-01T18:25:31.831Z,38.13
2019-03-01T18:28:00.376Z,36.23
2019-03-01T18:30:34.466Z,39.23
2019-03-01T18:33:02.947Z,33.40
2019-03-01T18:35:31.437Z,35.63
2019-03-01T18:37:59.969Z,36.03
2019-03-01T18:40:28.455Z,35.23
2019-03-01T18:42:56.935Z,36.77
2019-03-01T18:45:27.321Z,33.23
2019-03-01T18:47:55.852Z,34.87
2019-03-01T18:50:31.174Z,33.20
2019-03-01T18:53:03.453Z,28.47
2019-03-01T18:55:31.586Z,31.33
2019-03-01T18:58:00.217Z,31.97
2019-03-01T19:00:41.432Z,41.75
2019-03-01T19:03:09.989Z,32.40
2019-03-01T19:05:40.319Z,28.33
2019-03-01T19:08:08.676Z,32.63
2019-03-01T19:10:37.256Z,30.30
2019-03-01T19:13:05.968Z,41.30
2019-03-01T19:15:34.458Z,30.43
2019-03-01T19:18:03.400Z,24.13
2019-03-01T19:20:37.886Z,23.13
2019-03-01T19:23:05.337Z,36.97
2019-03-01T19:25:33.887Z,26.00
2019-03-01T19:28:02.348Z,27.20
2019-03-01T19:30:30.830Z,33.47
2019-03-01T19:33:02.208Z,24.40
2019-03-01T19:35:30.027Z,22.40
2019-03-01T19:37:58.742Z,25.40
2019-03-01T19:40:27.413Z,18.63
2019-03-01T19:42:57.375Z,20.13
2019-03-01T19:45:26.425Z,23.27
2019-03-01T19:48:01.298Z,19.13
2019-03-01T19:50:27.418Z,17.70
2019-03-01T19:52:55.949Z,17.43
2019-03-01T19:55:24.589Z,18.50
2019-03-01T19:57:53.241Z,15.60
2019-03-01T20:00:27.000Z,19.00
2019-03-01T20:02:55.786Z,20.17
2019-03-01T20:05:35.304Z,16.67
2019-03-01T20:08:03.974Z,18.73
2019-03-01T20:10:32.570Z,15.80
2019-03-01T20:13:01.049Z,17.83
2019-03-01T20:15:30.666Z,16.40
2019-03-01T20:17:59.345Z,17.27
2019-03-01T20:20:33.501Z,13.37
2019-03-01T20:23:01.193Z,19.50
2019-03-01T20:25:29.661Z,15.67
2019-03-01T20:27:58.151Z,16.37
2019-03-01T20:30:33.441Z,15.47
2019-03-01T20:33:02.099Z,17.47
2019-03-01T20:35:30.565Z,15.97
2019-03-01T20:38:00.113Z,15.83
2019-03-01T20:40:29.277Z,17.50
2019-03-01T20:43:01.276Z,15.87
2019-03-01T20:45:31.270Z,17.87
2019-03-01T20:48:00.094Z,15.83
2019-03-01T20:50:28.625Z,16.40
2019-03-01T20:52:57.171Z,14.53
2019-03-01T20:55:25.642Z,17.20
2019-03-01T20:57:54.127Z,18.13
2019-03-01T21:00:26.160Z,16.03
2019-03-01T21:02:56.086Z,17.60
2019-03-01T21:05:25.018Z,16.03
2019-03-01T21:07:54.899Z,15.70
2019-03-01T21:10:28.097Z,16.77
2019-03-01T21:12:56.564Z,17.00
2019-03-01T21:15:25.191Z,16.53
2019-03-01T21:17:56.996Z,17.10
2019-03-01T21:20:23.935Z,18.87
2019-03-01T21:22:52.424Z,17.43
2019-03-01T21:25:22.212Z,19.57
2019-03-01T21:27:50.735Z,16.20
2019-03-01T21:30:24.092Z,16.43
2019-03-01T21:32:52.745Z,16.97
2019-03-01T21:35:21.221Z,15.93
2019-03-01T21:37:49.772Z,16.03
2019-03-01T21:40:18.415Z,18.67
2019-03-01T21:42:46.969Z,15.87
2019-03-01T21:45:21.193Z,17.20
2019-03-01T21:47:48.909Z,17.50
2019-03-01T21:50:17.741Z,17.77
2019-03-01T21:52:46.224Z,19.23
2019-03-01T21:55:16.694Z,15.87
2019-03-01T21:57:45.238Z,16.83
2019-03-01T22:00:16.913Z,17.70
2019-03-01T22:02:48.840Z,16.73
2019-03-01T22:05:15.573Z,17.90
2019-03-01T22:07:44.057Z,18.57
2019-03-01T22:10:14.729Z,18.23
2019-03-01T22:12:43.381Z,19.67
2019-03-01T22:15:14.581Z,18.67
2019-03-01T22:17:45.474Z,21.13
2019-03-01T22:20:13.329Z,16.17
2019-03-01T22:22:41.801Z,17.77
2019-03-01T22:25:13.076Z,17.77
2019-03-01T22:27:42.497Z,20.40
2019-03-01T22:30:22.859Z,17.43
2019-03-01T22:32:49.853Z,16.23
2019-03-01T22:35:18.305Z,17.30
2019-03-01T22:37:47.112Z,16.73
2019-03-01T22:40:15.719Z,19.73
2019-03-01T22:42:45.863Z,17.63
2019-03-01T22:45:16.039Z,16.47
2019-03-01T22:47:44.511Z,18.33
2019-03-01T22:50:15.326Z,16.00
2019-03-01T22:52:44.042Z,13.80
2019-03-01T22:55:16.313Z,16.20
2019-03-01T22:57:45.141Z,17.23
2019-03-01T23:00:39.574Z,17.73
2019-03-01T23:03:08.118Z,15.30
2019-03-01T23:05:39.207Z,15.63
2019-03-01T23:08:07.549Z,18.63
2019-03-01T23:10:36.072Z,18.77
2019-03-01T23:13:04.554Z,16.07
2019-03-01T23:15:33.028Z,18.17
2019-03-01T23:18:01.833Z,16.57
2019-03-01T23:20:30.452Z,21.20
2019-03-01T23:22:58.923Z,19.73
2019-03-01T23:25:27.387Z,26.37
2019-03-01T23:27:55.889Z,16.63
2019-03-01T23:30:25.708Z,20.23
2019-03-01T23:32:55.883Z,22.57
2019-03-01T23:35:24.564Z,20.03
2019-03-01T23:37:53.048Z,20.77
2019-03-01T23:40:21.516Z,21.00
2019-03-01T23:42:49.974Z,22.93
2019-03-01T23:45:18.594Z,19.27
2019-03-01T23:47:47.290Z,21.27
2019-03-01T23:50:15.772Z,19.60
2019-03-01T23:52:44.252Z,21.33
2019-03-01T23:55:15.583Z,22.53
2019-03-01T23:57:42.986Z,22.07
